Time;durP1;ratioP1;P1;durP2;ratioP2;P2;SDS_P1;SDS_P2;PMS_P1;PMS_P2;Temp;Humidity;BMP_temperature;BMP_pressure;BME280_temperature;BME280_humidity;BME280_pressure;Samples;Min_cycle;Max_cycle;Signal;HPM_P1;HPM_P2
2023/02/18 00:00:03;;;;;;;21.73;9.63;;;;;;;;;;4986958;28;20053;-72
2023/02/18 00:02:32;;;;;;;23.33;9.68;;;;;;;;;;4946608;28;20062;-73
2023/02/18 00:04:59;;;;;;;22.48;9.27;;;;;;;;;;4901496;28;20052;-68
2023/02/18 00:10:40;;;;;;;19.70;9.98;;;;;;;;;;4992983;27;20532;-72
2023/02/18 00:13:17;;;;;;;;;;;;;;;;;;;;;
2023/02/18 00:21:07;;;;;;;25.80;9.95;;;;;;;;;;4949913;27;20482;-72
2023/02/18 00:23:38;;;;;;;24.73;10.23;;;;;;;;;;4858668;29;20047;-75
2023/02/18 00:31:06;;;;;;;27.95;11.13;;;;;;;;;;4871306;28;20085;-74
2023/02/18 00:33:33;;;;;;;26.95;10.60;;;;;;;;;;4913595;28;20134;-68
2023/02/18 00:36:03;;;;;;;26.88;11.13;;;;;;;;;;4951341;28;20156;-76
2023/02/18 00:38:40;;;;;;;28.55;10.75;;;;;;;;;;4887883;28;20101;-73
2023/02/18 00:41:07;;;;;;;28.70;10.23;;;;;;;;;;4951896;28;20058;-73
2023/02/18 00:43:38;;;;;;;21.92;9.57;;;;;;;;;;4915421;28;20055;-75
2023/02/18 00:46:05;;;;;;;26.73;10.80;;;;;;;;;;4917985;28;20053;-70
2023/02/18 00:48:40;;;;;;;21.33;9.10;;;;;;;;;;4925762;28;20073;-77
2023/02/18 00:51:13;;;;;;;28.13;10.15;;;;;;;;;;4973302;28;20050;-71
2023/02/18 00:53:40;;;;;;;25.25;10.30;;;;;;;;;;4963533;28;20077;-73
2023/02/18 01:01:20;;;;;;;28.65;10.27;;;;;;;;;;4990964;28;20456;-72
2023/02/18 01:03:49;;;;;;;26.80;9.98;;;;;;;;;;4990329;28;20070;-69
2023/02/18 01:06:16;;;;;;;24.85;10.02;;;;;;;;;;4975291;28;20064;-67
2023/02/18 01:08:45;;;;;;;21.38;8.90;;;;;;;;;;4927350;28;20072;-73
2023/02/18 01:11:12;;;;;;;24.92;8.82;;;;;;;;;;4939427;28;20079;-69
2023/02/18 01:13:38;;;;;;;25.83;10.10;;;;;;;;;;4958258;28;20069;-73
2023/02/18 01:16:05;;;;;;;22.23;9.25;;;;;;;;;;4992029;28;20085;-65
2023/02/18 01:18:33;;;;;;;24.23;9.88;;;;;;;;;;4982180;28;20068;-72
2023/02/18 01:21:01;;;;;;;24.20;9.05;;;;;;;;;;4994918;28;20080;-72
2023/02/18 01:23:28;;;;;;;20.25;9.20;;;;;;;;;;4988846;28;20061;-72
2023/02/18 01:25:56;;;;;;;;;;;;;;;;;;4989847;28;20075;-70
2023/02/18 01:28:26;;;;;;;22.55;8.43;;;;;;;;;;4943524;28;20029;-69
2023/02/18 01:30:53;;;;;;;20.52;8.52;;;;;;;;;;4959828;28;20133;-69
2023/02/18 01:33:36;;;;;;;27.42;9.90;;;;;;;;;;4989169;28;20336;-70
2023/02/18 01:36:18;;;;;;;;;;;;;;;;;;;;;
2023/02/18 01:41:15;;;;;;;26.70;9.93;;;;;;;;;;4908603;28;20055;-77
2023/02/18 01:43:42;;;;;;;21.77;9.18;;;;;;;;;;4918580;28;20047;-73
2023/02/18 01:46:18;;;;;;;24.08;9.60;;;;;;;;;;4913481;28;20094;-73
2023/02/18 01:48:47;;;;;;;22.23;9.07;;;;;;;;;;4923590;28;20161;-71
2023/02/18 01:51:21;;;;;;;24.23;10.10;;;;;;;;;;4925550;28;20055;-68
2023/02/18 01:53:52;;;;;;;25.05;8.27;;;;;;;;;;4930167;28;20067;-69
2023/02/18 01:56:24;;;;;;;22.45;9.15;;;;;;;;;;4928759;28;20114;-74
2023/02/18 01:58:57;;;;;;;25.92;9.57;;;;;;;;;;4880013;28;20059;-70
2023/02/18 02:08:43;;;;;;;26.63;9.63;;;;;;;;;;4878664;29;20066;-67
2023/02/18 02:11:15;;;;;;;26.48;9.50;;;;;;;;;;4869109;29;20147;-72
2023/02/18 02:14:09;;;;;;;26.63;10.57;;;;;;;;;;4892810;29;20490;-69
2023/02/18 02:16:40;;;;;;;27.85;10.40;;;;;;;;;;4934363;28;20061;-66
2023/02/18 02:19:11;;;;;;;25.73;10.30;;;;;;;;;;4942142;28;20125;-70
2023/02/18 02:22:00;;;;;;;26.15;9.40;;;;;;;;;;4952768;28;20056;-67
2023/02/18 02:24:47;;;;;;;29.33;10.57;;;;;;;;;;4930502;28;20088;-67
2023/02/18 02:27:22;;;;;;;25.85;9.70;;;;;;;;;;4986584;28;20050;-68
2023/02/18 02:30:15;;;;;;;25.25;9.80;;;;;;;;;;4977394;28;20049;-66
2023/02/18 02:33:02;;;;;;;28.33;10.07;;;;;;;;;;4967526;28;20240;-68
2023/02/18 02:35:32;;;;;;;25.52;10.02;;;;;;;;;;4977103;28;20125;-72
2023/02/18 02:38:01;;;;;;;24.00;10.75;;;;;;;;;;4990026;28;20077;-68
2023/02/18 02:40:33;;;;;;;25.13;10.60;;;;;;;;;;4953598;28;20133;-72
2023/02/18 02:43:06;;;;;;;25.58;10.70;;;;;;;;;;4939286;28;20057;-68
2023/02/18 02:45:48;;;;;;;29.20;10.48;;;;;;;;;;4945865;28;20058;-71
2023/02/18 02:48:17;;;;;;;26.13;10.73;;;;;;;;;;4937771;28;20062;-73
2023/02/18 02:50:53;;;;;;;23.65;9.90;;;;;;;;;;4819218;28;20064;-67
2023/02/18 02:53:22;;;;;;;29.40;10.55;;;;;;;;;;4940348;28;20054;-74
2023/02/18 02:55:49;;;;;;;25.58;11.25;;;;;;;;;;4899828;28;20123;-76
2023/02/18 02:58:19;;;;;;;27.65;11.05;;;;;;;;;;4851283;28;20071;-75
2023/02/18 03:01:09;;;;;;;25.63;10.25;;;;;;;;;;4874739;28;20137;-76
2023/02/18 03:03:51;;;;;;;26.77;11.32;;;;;;;;;;4836723;28;20118;-73
2023/02/18 03:06:26;;;;;;;26.88;10.93;;;;;;;;;;4918210;28;20063;-73
2023/02/18 03:08:58;;;;;;;30.95;11.02;;;;;;;;;;4908243;28;20062;-76
2023/02/18 03:11:34;;;;;;;27.25;11.55;;;;;;;;;;4927518;28;20145;-71
2023/02/18 03:14:24;;;;;;;31.00;12.00;;;;;;;;;;4869833;28;20043;-73
2023/02/18 03:16:53;;;;;;;30.57;11.70;;;;;;;;;;4898451;28;20071;-72
2023/02/18 03:21:50;;;;;;;31.83;12.60;;;;;;;;;;4854804;29;20051;-72
2023/02/18 03:27:05;;;;;;;31.45;11.88;;;;;;;;;;5016352;27;20449;-76
2023/02/18 03:29:43;;;;;;;28.50;11.43;;;;;;;;;;4997626;28;20050;-72
2023/02/18 03:32:14;;;;;;;28.90;12.33;;;;;;;;;;4955906;28;20045;-75
2023/02/18 03:34:47;;;;;;;28.10;11.73;;;;;;;;;;4942628;28;20160;-76
2023/02/18 03:37:15;;;;;;;32.13;12.02;;;;;;;;;;4928665;28;20046;-73
2023/02/18 03:39:46;;;;;;;30.65;11.75;;;;;;;;;;4962158;28;20058;-79
2023/02/18 03:42:18;;;;;;;36.13;12.90;;;;;;;;;;4992163;28;20049;-74
2023/02/18 03:44:52;;;;;;;30.70;11.83;;;;;;;;;;4935041;28;20054;-76
2023/02/18 03:47:22;;;;;;;31.55;11.90;;;;;;;;;;4934133;28;20078;-73
2023/02/18 03:49:49;;;;;;;28.95;11.50;;;;;;;;;;4956630;28;20111;-74
2023/02/18 03:52:19;;;;;;;28.38;11.63;;;;;;;;;;4940285;28;20141;-71
2023/02/18 03:54:48;;;;;;;28.90;12.02;;;;;;;;;;4955503;28;20054;-74
2023/02/18 03:59:45;;;;;;;27.83;10.65;;;;;;;;;;4917302;28;20065;-75
2023/02/18 04:02:12;;;;;;;27.33;10.23;;;;;;;;;;4937656;28;20120;-73
2023/02/18 04:04:41;;;;;;;25.83;10.75;;;;;;;;;;4938325;28;20129;-72
2023/02/18 04:07:07;;;;;;;23.08;10.57;;;;;;;;;;4993325;28;20064;-71
2023/02/18 04:09:40;;;;;;;23.42;9.73;;;;;;;;;;4981572;28;20074;-70
2023/02/18 04:12:08;;;;;;;25.15;10.02;;;;;;;;;;4915754;28;20244;-70
2023/02/18 04:14:44;;;;;;;25.27;10.17;;;;;;;;;;4531319;28;9989873;-75
2023/02/18 04:17:10;;;;;;;24.05;10.10;;;;;;;;;;4918589;28;20324;-74
2023/02/18 04:19:40;;;;;;;25.08;10.45;;;;;;;;;;4936612;28;20053;-77
2023/02/18 04:22:18;;;;;;;25.20;9.50;;;;;;;;;;4903935;28;20146;-69
2023/02/18 04:30:11;;;;;;;23.38;9.20;;;;;;;;;;4986571;27;20507;-74
2023/02/18 04:32:40;;;;;;;18.75;8.02;;;;;;;;;;4900751;28;20055;-71
2023/02/18 04:35:09;;;;;;;18.95;8.18;;;;;;;;;;4923670;28;20071;-73
2023/02/18 04:42:34;;;;;;;18.85;7.88;;;;;;;;;;4869417;29;20047;-76
2023/02/18 04:45:09;;;;;;;19.58;7.95;;;;;;;;;;4916062;28;20156;-75
2023/02/18 04:47:37;;;;;;;16.83;7.47;;;;;;;;;;4948848;28;20204;-72
2023/02/18 04:50:26;;;;;;;19.25;7.68;;;;;;;;;;4999390;28;20056;-72
2023/02/18 04:53:15;;;;;;;16.38;7.25;;;;;;;;;;4958098;28;20058;-71
2023/02/18 04:55:41;;;;;;;15.60;6.90;;;;;;;;;;4933057;28;20064;-76
2023/02/18 04:58:17;;;;;;;15.75;6.68;;;;;;;;;;4976784;28;20062;-73
2023/02/18 05:00:45;;;;;;;15.65;6.43;;;;;;;;;;4980269;28;20076;-71
2023/02/18 05:03:12;;;;;;;14.18;6.30;;;;;;;;;;4939678;28;20151;-71
2023/02/18 05:08:04;;;;;;;17.08;7.03;;;;;;;;;;4893554;28;20056;-72
2023/02/18 05:10:31;;;;;;;14.85;6.15;;;;;;;;;;5010345;28;20053;-72
2023/02/18 05:13:12;;;;;;;14.75;6.40;;;;;;;;;;4911851;28;20060;-75
2023/02/18 05:31:06;;;;;;;11.80;4.75;;;;;;;;;;4877982;29;20048;-77
2023/02/18 05:33:36;;;;;;;12.65;4.40;;;;;;;;;;4889800;28;20070;-74
2023/02/18 05:41:26;;;;;;;10.63;4.32;;;;;;;;;;4972430;27;20461;-70
2023/02/18 05:46:42;;;;;;;9.85;3.55;;;;;;;;;;4925443;28;20054;-67
2023/02/18 05:49:09;;;;;;;8.05;3.70;;;;;;;;;;4929529;28;20055;-74
2023/02/18 05:51:36;;;;;;;9.50;3.70;;;;;;;;;;4915806;28;20062;-71
2023/02/18 05:54:05;;;;;;;9.48;3.72;;;;;;;;;;4884362;28;20059;-72
2023/02/18 05:56:49;;;;;;;10.32;3.88;;;;;;;;;;4930333;28;20420;-74
2023/02/18 05:59:27;;;;;;;8.40;3.00;;;;;;;;;;4933823;28;20058;-75
2023/02/18 06:01:54;;;;;;;6.75;2.75;;;;;;;;;;4901541;28;20064;-72
2023/02/18 06:04:21;;;;;;;7.90;2.88;;;;;;;;;;4911368;28;20046;-69
2023/02/18 06:06:50;;;;;;;6.50;2.90;;;;;;;;;;4901229;28;20052;-71
2023/02/18 06:09:16;;;;;;;;;;;;;;;;;;4906400;28;20169;-77
2023/02/18 06:11:43;;;;;;;6.97;2.75;;;;;;;;;;4888260;28;19937;-76
2023/02/18 06:14:10;;;;;;;6.50;2.50;;;;;;;;;;4876513;28;20064;-68
2023/02/18 06:16:44;;;;;;;5.80;2.63;;;;;;;;;;4888019;28;20054;-71
2023/02/18 06:19:11;;;;;;;5.32;2.70;;;;;;;;;;4877401;29;20056;-75
2023/02/18 06:21:41;;;;;;;6.32;2.83;;;;;;;;;;4871466;28;20063;-71
2023/02/18 06:29:20;;;;;;;7.80;2.95;;;;;;;;;;4802013;29;20186;-72
2023/02/18 06:37:20;;;;;;;7.75;3.33;;;;;;;;;;4949939;27;20555;-77
2023/02/18 06:39:56;;;;;;;7.25;3.30;;;;;;;;;;4950290;28;20053;-72
2023/02/18 06:42:23;;;;;;;7.20;3.15;;;;;;;;;;4959887;28;20126;-71
2023/02/18 06:44:55;;;;;;;6.22;3.10;;;;;;;;;;4963500;28;20041;-77
2023/02/18 06:47:25;;;;;;;7.82;3.15;;;;;;;;;;4975806;28;20084;-71
2023/02/18 06:49:53;;;;;;;8.57;3.70;;;;;;;;;;4954561;28;20153;-79
2023/02/18 06:52:29;;;;;;;7.13;3.33;;;;;;;;;;4916832;28;20059;-70
2023/02/18 06:54:58;;;;;;;7.72;3.30;;;;;;;;;;4945226;28;20343;-78
2023/02/18 06:57:28;;;;;;;7.55;3.30;;;;;;;;;;4942795;28;20128;-78
2023/02/18 07:04:45;;;;;;;8.57;3.80;;;;;;;;;;4830706;29;20292;-71
2023/02/18 07:07:14;;;;;;;7.75;3.55;;;;;;;;;;4878372;28;20055;-76
2023/02/18 07:10:02;;;;;;;7.85;3.47;;;;;;;;;;4931524;28;20069;-78
2023/02/18 07:12:33;;;;;;;8.02;3.47;;;;;;;;;;4943994;28;20053;-73
2023/02/18 07:20:14;;;;;;;7.40;3.45;;;;;;;;;;4842206;29;20132;-76
2023/02/18 07:28:43;;;;;;;9.65;4.10;;;;;;;;;;4967983;27;20562;-78
2023/02/18 07:37:08;;;;;;;8.98;3.92;;;;;;;;;;5003726;27;20498;-75
2023/02/18 07:44:58;;;;;;;10.25;3.75;;;;;;;;;;4986610;27;20507;-75
2023/02/18 07:58:48;;;;;;;10.95;3.70;;;;;;;;;;5015178;28;20498;-79
2023/02/18 08:01:59;;;;;;;9.23;3.17;;;;;;;;;;4957737;28;20145;-79
2023/02/18 08:08:19;;;;;;;10.45;3.42;;;;;;;;;;4965023;27;20409;-74
2023/02/18 08:10:50;;;;;;;8.27;3.40;;;;;;;;;;4891933;28;20158;-74
2023/02/18 08:18:48;;;;;;;7.32;2.85;;;;;;;;;;5027413;27;20490;-79
2023/02/18 08:21:28;;;;;;;10.05;3.15;;;;;;;;;;4927226;28;20061;-85
2023/02/18 08:37:01;;;;;;;8.05;2.50;;;;;;;;;;4997108;27;20490;-76
2023/02/18 08:49:12;;;;;;;10.32;3.22;;;;;;;;;;5023301;28;20525;-79
2023/02/18 08:51:42;;;;;;;10.52;2.17;;;;;;;;;;4928219;28;20115;-73
2023/02/18 08:54:12;;;;;;;11.95;2.53;;;;;;;;;;4940329;28;20062;-72
2023/02/18 08:56:44;;;;;;;9.38;2.35;;;;;;;;;;4894169;28;20054;-73
2023/02/18 08:59:16;;;;;;;12.52;2.28;;;;;;;;;;4957473;28;20065;-76
2023/02/18 09:01:48;;;;;;;7.07;2.00;;;;;;;;;;4951417;28;20079;-73
2023/02/18 09:04:22;;;;;;;12.35;1.90;;;;;;;;;;4938824;28;20073;-75
2023/02/18 09:09:51;;;;;;;12.45;1.88;;;;;;;;;;5014707;27;20433;-78
2023/02/18 09:12:47;;;;;;;9.82;1.63;;;;;;;;;;4913112;28;20047;-73
2023/02/18 09:15:16;;;;;;;8.38;1.48;;;;;;;;;;4955254;28;20051;-72
2023/02/18 09:17:45;;;;;;;5.30;1.40;;;;;;;;;;4915578;28;20169;-70
2023/02/18 09:20:17;;;;;;;14.40;2.10;;;;;;;;;;4980514;28;20453;-70
2023/02/18 09:23:00;;;;;;;8.07;1.45;;;;;;;;;;4954275;28;20066;-70
2023/02/18 09:31:08;;;;;;;9.93;1.80;;;;;;;;;;4994826;28;20465;-74
2023/02/18 09:33:41;;;;;;;6.78;1.75;;;;;;;;;;4934320;28;20054;-72
2023/02/18 09:36:08;;;;;;;7.68;1.50;;;;;;;;;;4908694;28;20058;-72
2023/02/18 09:43:54;;;;;;;12.55;2.00;;;;;;;;;;4999503;27;21165;-76
2023/02/18 09:46:33;;;;;;;8.05;1.40;;;;;;;;;;4958737;28;20057;-75
2023/02/18 09:49:14;;;;;;;4.63;1.55;;;;;;;;;;4947844;28;20078;-76
2023/02/18 09:51:44;;;;;;;7.28;1.60;;;;;;;;;;4927215;28;20078;-79
2023/02/18 09:59:42;;;;;;;;;;;;;;;;;;;;;
2023/02/18 10:07:47;;;;;;;10.55;1.90;;;;;;;;;;4964664;27;20457;-77
2023/02/18 10:20:40;;;;;;;7.85;1.15;;;;;;;;;;5021106;27;20430;-72
2023/02/18 10:30:56;;;;;;;7.15;1.50;;;;;;;;;;4962966;27;3912168;-71
2023/02/18 10:33:44;;;;;;;12.93;1.95;;;;;;;;;;4944734;28;20055;-70
2023/02/18 10:36:30;;;;;;;11.27;1.67;;;;;;;;;;4892537;28;20185;-75
2023/02/18 10:47:27;;;;;;;12.77;1.48;;;;;;;;;;5025114;27;20446;-74
2023/02/18 10:50:12;;;;;;;6.50;1.60;;;;;;;;;;4955633;28;20994;-81
2023/02/18 10:52:45;;;;;;;6.28;1.42;;;;;;;;;;4977115;28;20069;-78
2023/02/18 11:00:38;;;;;;;6.93;1.70;;;;;;;;;;4934103;27;20453;-75
2023/02/18 11:06:20;;;;;;;9.65;1.45;;;;;;;;;;4674721;27;8540259;-70
2023/02/18 11:14:55;;;;;;;10.45;2.00;;;;;;;;;;4925799;28;20062;-75
2023/02/18 11:23:28;;;;;;;10.43;2.53;;;;;;;;;;4889505;28;20674;-79
2023/02/18 11:26:04;;;;;;;6.85;1.48;;;;;;;;;;4842090;28;20110;-74
2023/02/18 11:44:28;;;;;;;12.52;1.75;;;;;;;;;;5885344;21;6649678;-78
2023/02/18 11:47:18;;;;;;;;;;;;;;;;;;;;;
2023/02/18 11:52:38;;;;;;;8.90;2.30;;;;;;;;;;4991017;27;21336;-78
2023/02/18 11:55:29;;;;;;;9.35;2.20;;;;;;;;;;4944770;28;20079;-75
2023/02/18 13:36:50;;;;;;;13.73;3.13;;;;;;;;;;6142576;22;20419;-69
2023/02/18 13:45:31;;;;;;;18.17;3.08;;;;;;;;;;5053877;27;20457;-71
2023/02/18 13:48:26;;;;;;;10.50;2.60;;;;;;;;;;4973224;28;20059;-73
2023/02/18 13:51:08;;;;;;;12.63;2.63;;;;;;;;;;4948774;28;20471;-72
2023/02/18 13:53:52;;;;;;;8.38;2.97;;;;;;;;;;4993783;28;20067;-71
2023/02/18 14:19:29;;;;;;;;;;;;;;;;;;;;;
2023/02/18 14:35:28;;;;;;;8.60;2.60;;;;;;;;;;5905713;22;6455284;-79
2023/02/18 14:38:23;;;;;;;9.02;2.80;;;;;;;;;;6041046;23;20254;-76
2023/02/18 14:41:03;;;;;;;6.63;2.47;;;;;;;;;;5977832;23;20105;-74
2023/02/18 14:43:40;;;;;;;15.70;3.20;;;;;;;;;;5988574;23;20033;-72
2023/02/18 14:55:04;;;;;;;;;;;;;;;;;;;;;
2023/02/18 15:48:55;;;;;;;7.00;3.15;;;;;;;;;;5634917;22;15762724;-75
2023/02/18 15:51:35;;;;;;;12.48;4.05;;;;;;;;;;5988487;23;20248;-73
2023/02/18 15:54:03;;;;;;;15.60;4.18;;;;;;;;;;5989774;23;20025;-77
2023/02/18 15:56:34;;;;;;;11.55;3.50;;;;;;;;;;5978336;23;20086;-71
2023/02/18 15:59:18;;;;;;;13.77;4.55;;;;;;;;;;6000465;23;20049;-71
2023/02/18 16:09:43;;;;;;;13.85;4.05;;;;;;;;;;5954315;23;20032;-75
2023/02/18 16:12:26;;;;;;;9.82;3.97;;;;;;;;;;5893593;23;20033;-74
2023/02/18 16:20:40;;;;;;;;;;;;;;;;;;;;;
2023/02/18 16:23:11;;;;;;;10.95;3.95;;;;;;;;;;5850171;24;20088;-71
2023/02/18 16:25:49;;;;;;;11.18;4.07;;;;;;;;;;6014866;23;20093;-69
2023/02/18 16:28:27;;;;;;;11.60;3.50;;;;;;;;;;6029384;23;20034;-72
2023/02/18 16:30:54;;;;;;;9.48;3.67;;;;;;;;;;5994142;23;20033;-76
2023/02/18 16:33:21;;;;;;;11.73;4.18;;;;;;;;;;6029488;23;20033;-74
2023/02/18 16:35:51;;;;;;;14.45;4.10;;;;;;;;;;6070320;23;20048;-73
2023/02/18 16:38:22;;;;;;;15.77;4.03;;;;;;;;;;6085031;23;20106;-74
2023/02/18 16:40:54;;;;;;;13.63;4.00;;;;;;;;;;5976309;23;20030;-73
2023/02/18 16:43:22;;;;;;;10.43;3.90;;;;;;;;;;5955126;23;20101;-71
2023/02/18 16:46:03;;;;;;;14.95;4.13;;;;;;;;;;5970806;23;20038;-71
2023/02/18 16:48:34;;;;;;;10.80;3.97;;;;;;;;;;5930917;23;20087;-72
2023/02/18 16:51:02;;;;;;;16.73;3.92;;;;;;;;;;5933632;23;20032;-72
2023/02/18 16:53:42;;;;;;;;;;;;;;;;;;;;;
2023/02/18 16:56:24;;;;;;;14.00;3.60;;;;;;;;;;5964225;23;20031;-71
2023/02/18 16:58:51;;;;;;;11.73;3.83;;;;;;;;;;6023121;23;20118;-74
2023/02/18 17:01:27;;;;;;;12.40;3.95;;;;;;;;;;6054580;23;20050;-72
2023/02/18 17:03:57;;;;;;;12.40;3.50;;;;;;;;;;5936816;23;20111;-75
2023/02/18 17:06:26;;;;;;;10.95;3.92;;;;;;;;;;5867697;24;20025;-75
2023/02/18 17:08:55;;;;;;;10.48;3.67;;;;;;;;;;5835855;24;20029;-72
2023/02/18 17:11:48;;;;;;;11.63;3.47;;;;;;;;;;5863542;23;20028;-72
2023/02/18 17:14:21;;;;;;;13.45;3.85;;;;;;;;;;5903751;23;20034;-71
2023/02/18 17:16:49;;;;;;;16.95;4.10;;;;;;;;;;5983270;23;20047;-74
2023/02/18 17:19:27;;;;;;;13.02;4.05;;;;;;;;;;5959826;23;20031;-73
2023/02/18 17:25:27;;;;;;;10.75;3.53;;;;;;;;;;4948379;27;20499;-73
2023/02/18 17:28:18;;;;;;;12.55;4.15;;;;;;;;;;4866566;28;20128;-72
2023/02/18 17:44:22;;;;;;;15.45;3.72;;;;;;;;;;6003799;22;4099086;-76
2023/02/18 17:47:36;;;;;;;;;;;;;;;;;;;;;
2023/02/18 17:55:50;;;;;;;13.70;3.75;;;;;;;;;;5042232;27;20736;-73
2023/02/18 17:58:18;;;;;;;18.45;4.50;;;;;;;;;;4993320;28;20160;-74
2023/02/18 18:00:50;;;;;;;11.20;4.10;;;;;;;;;;5003935;28;20126;-72
2023/02/18 18:03:19;;;;;;;10.27;3.38;;;;;;;;;;4977807;28;20053;-73
2023/02/18 18:05:47;;;;;;;10.20;3.95;;;;;;;;;;4996234;28;20045;-74
2023/02/18 18:08:15;;;;;;;11.38;3.47;;;;;;;;;;4953783;28;20054;-71
2023/02/18 18:10:47;;;;;;;17.52;4.32;;;;;;;;;;4953909;28;20061;-73
2023/02/18 18:18:47;;;;;;;11.27;3.97;;;;;;;;;;5080449;27;20431;-72
2023/02/18 18:21:29;;;;;;;14.60;3.58;;;;;;;;;;4974054;28;20133;-72
2023/02/18 18:31:17;;;;;;;14.25;3.55;;;;;;;;;;4906721;28;20116;-74
2023/02/18 18:47:01;;;;;;;11.55;3.60;;;;;;;;;;5058093;27;20519;-70
2023/02/18 18:49:37;;;;;;;12.35;3.30;;;;;;;;;;4998730;28;20064;-69
2023/02/18 18:52:07;;;;;;;12.93;3.58;;;;;;;;;;4995768;28;20127;-71
2023/02/18 18:54:42;;;;;;;9.00;3.60;;;;;;;;;;5012475;28;20044;-70
2023/02/18 18:57:16;;;;;;;10.98;3.28;;;;;;;;;;5006565;28;20069;-73
2023/02/18 18:59:58;;;;;;;11.43;3.28;;;;;;;;;;4977200;28;20095;-72
2023/02/18 19:12:41;;;;;;;8.95;3.53;;;;;;;;;;5020836;27;20460;-74
2023/02/18 19:15:13;;;;;;;12.27;3.35;;;;;;;;;;4919445;28;20158;-73
2023/02/18 19:17:44;;;;;;;12.00;3.25;;;;;;;;;;4963855;28;20430;-71
2023/02/18 19:20:14;;;;;;;14.70;3.60;;;;;;;;;;4968889;28;20054;-73
2023/02/18 19:22:42;;;;;;;8.98;3.35;;;;;;;;;;4949441;28;20561;-73
2023/02/18 19:25:39;;;;;;;11.50;3.38;;;;;;;;;;4936300;28;20098;-71
2023/02/18 19:47:43;;;;;;;14.52;3.80;;;;;;;;;;5010758;27;20241;-70
2023/02/18 19:50:22;;;;;;;11.80;3.92;;;;;;;;;;4989485;28;20115;-76
2023/02/18 19:52:54;;;;;;;14.70;4.25;;;;;;;;;;4969477;28;20666;-72
2023/02/18 19:55:25;;;;;;;14.00;3.88;;;;;;;;;;4928279;28;20054;-74
2023/02/18 20:36:43;;;;;;;;;;;;;;;;;;;;;
2023/02/18 20:39:43;;;;;;;12.52;5.25;;;;;;;;;;5944666;23;20079;-76
2023/02/18 23:38:28;;;;;;;;;;;;;;;;;;;;;
2023/02/18 23:52:17;;;;;;;;;;;;;;;;;;;;;
